Time;durP1;ratioP1;P1;durP2;ratioP2;P2;SDS_P1;SDS_P2;PMS_P1;PMS_P2;Temp;Humidity;BMP_temperature;BMP_pressure;BME280_temperature;BME280_humidity;BME280_pressure;Samples;Min_cycle;Max_cycle;Signal;HPM_P1;HPM_P2
2023/06/02 00:00:09;;;;;;;5.70;3.80;;;;;;;10.80;86.27;95480.09;106515;1263;22693;-69
2023/06/02 00:02:59;;;;;;;4.50;3.60;;;;;;;10.70;86.00;95479.27;106602;1275;25380;-70
2023/06/02 00:05:29;;;;;;;8.00;3.40;;;;;;;10.63;86.20;95477.83;106629;1276;22626;-70
2023/06/02 00:07:58;;;;;;;5.90;3.50;;;;;;;10.53;86.93;95474.31;106574;1260;25616;-70
2023/06/02 00:10:26;;;;;;;8.70;3.70;;;;;;;10.44;86.87;95475.39;106656;1276;24377;-70
2023/06/02 00:12:54;;;;;;;9.40;3.40;;;;;;;10.34;86.79;95478.39;106584;1276;25319;-70
2023/06/02 00:15:22;;;;;;;5.00;3.40;;;;;;;10.29;86.57;95475.15;106577;1276;24200;-70
2023/06/02 00:17:50;;;;;;;5.00;3.20;;;;;;;10.28;86.48;95477.10;106586;1276;24228;-69
2023/06/02 00:20:20;;;;;;;5.50;3.40;;;;;;;10.25;86.50;95474.33;106580;1276;22543;-70
2023/06/02 00:22:51;;;;;;;4.30;3.60;;;;;;;10.22;86.58;95474.20;106550;1276;25674;-70
2023/06/02 00:25:19;;;;;;;5.00;3.40;;;;;;;10.23;86.89;95473.66;106614;1276;25681;-70
2023/06/02 00:27:47;;;;;;;5.10;3.60;;;;;;;10.26;87.48;95470.27;106629;1276;22650;-69
2023/06/02 00:30:15;;;;;;;6.70;3.80;;;;;;;10.28;87.77;95473.23;106528;1276;22523;-69
2023/06/02 00:32:43;;;;;;;5.40;3.10;;;;;;;10.29;88.12;95471.62;106559;1276;26596;-70
2023/06/02 00:35:12;;;;;;;6.10;3.80;;;;;;;10.29;87.53;95467.06;106593;1276;24385;-70
2023/06/02 00:37:40;;;;;;;4.60;3.50;;;;;;;10.30;87.54;95463.17;106587;1276;25329;-70
2023/06/02 00:40:09;;;;;;;4.60;3.50;;;;;;;10.31;87.88;95462.64;106563;1276;24216;-70
2023/06/02 00:42:37;;;;;;;4.20;3.10;;;;;;;10.34;87.79;95455.87;106635;1276;25191;-70
2023/06/02 00:45:06;;;;;;;5.70;3.20;;;;;;;10.30;87.60;95458.43;106555;1276;22629;-70
2023/06/02 00:47:34;;;;;;;5.40;3.60;;;;;;;10.24;87.43;95462.92;106609;1276;24253;-70
2023/06/02 00:50:03;;;;;;;6.50;3.40;;;;;;;10.21;88.57;95461.21;106549;1276;25401;-70
2023/06/02 00:52:33;;;;;;;4.70;3.40;;;;;;;10.26;88.43;95459.71;106572;1276;25226;-70
2023/06/02 00:55:02;;;;;;;8.00;3.50;;;;;;;10.30;88.42;95461.07;106624;1276;22780;-70
2023/06/02 00:57:33;;;;;;;7.70;3.00;;;;;;;10.30;88.02;95461.76;106568;1276;22540;-70
2023/06/02 01:00:04;;;;;;;4.20;3.50;;;;;;;10.30;87.80;95457.91;106595;1276;24287;-69
2023/06/02 01:02:34;;;;;;;5.70;3.20;;;;;;;10.29;87.69;95453.19;106738;1276;23009;-70
2023/06/02 01:05:10;;;;;;;5.60;3.30;;;;;;;10.29;87.55;95452.83;106586;1276;22645;-70
2023/06/02 01:07:44;;;;;;;7.10;3.50;;;;;;;10.26;87.35;95456.38;106598;1276;24396;-70
2023/06/02 01:10:15;;;;;;;4.70;3.20;;;;;;;10.23;87.70;95454.50;106615;1276;24179;-70
2023/06/02 01:12:44;;;;;;;4.60;3.50;;;;;;;10.27;87.98;95453.39;106507;1276;22558;-70
2023/06/02 01:15:13;;;;;;;6.00;3.70;;;;;;;10.33;87.94;95451.70;106610;1276;22631;-70
2023/06/02 01:17:46;;;;;;;5.70;3.50;;;;;;;10.35;87.45;95449.36;106539;1266;22539;-70
2023/06/02 01:20:21;;;;;;;4.90;3.40;;;;;;;10.31;87.50;95447.67;106598;1276;22543;-70
2023/06/02 01:23:15;;;;;;;5.90;3.80;;;;;;;10.33;87.75;95443.59;106610;1276;22571;-70
2023/06/02 01:25:44;;;;;;;3.90;3.00;;;;;;;10.39;87.71;95439.95;106588;1276;24375;-70
2023/06/02 01:28:14;;;;;;;5.10;3.50;;;;;;;10.34;87.15;95442.34;106589;1276;22514;-70
2023/06/02 01:30:43;;;;;;;8.80;3.80;;;;;;;10.26;86.91;95435.27;106544;1276;25448;-70
2023/06/02 01:33:30;;;;;;;5.70;3.90;;;;;;;10.21;87.16;95438.02;106523;1276;24319;-70
2023/06/02 01:35:59;;;;;;;4.50;3.20;;;;;;;10.11;87.16;95437.69;106622;1276;25382;-70
2023/06/02 01:38:30;;;;;;;4.10;3.40;;;;;;;9.99;87.09;95441.23;106584;1276;24403;-70
2023/06/02 01:41:03;;;;;;;6.20;3.20;;;;;;;9.90;87.30;95436.14;106619;1276;22517;-70
2023/06/02 01:43:32;;;;;;;7.40;4.30;;;;;;;9.84;87.26;95434.31;106647;1276;22534;-70
2023/06/02 01:46:01;;;;;;;5.70;3.60;;;;;;;9.88;87.80;95436.70;106587;1276;24240;-70
2023/06/02 01:48:30;;;;;;;5.40;4.00;;;;;;;9.89;88.08;95434.92;106600;1276;24537;-70
2023/06/02 01:50:58;;;;;;;4.40;3.30;;;;;;;9.87;87.79;95434.80;106614;1276;24491;-70
2023/06/02 01:53:26;;;;;;;4.60;3.60;;;;;;;9.83;87.95;95435.39;106428;1276;25357;-70
2023/06/02 01:55:56;;;;;;;6.80;3.70;;;;;;;9.81;88.15;95433.31;106609;1273;25430;-70
2023/06/02 01:58:25;;;;;;;7.10;4.00;;;;;;;9.84;88.18;95432.05;106769;1276;22625;-70
2023/06/02 02:00:54;;;;;;;7.00;3.80;;;;;;;9.89;88.24;95432.28;106687;1254;22652;-70
2023/06/02 02:03:22;;;;;;;4.70;3.30;;;;;;;9.90;88.12;95429.98;106583;1276;22627;-71
2023/06/02 02:05:51;;;;;;;5.60;3.50;;;;;;;9.91;88.24;95432.59;106568;1276;25340;-70
2023/06/02 02:08:19;;;;;;;6.40;3.50;;;;;;;9.95;88.30;95426.38;106577;1276;22790;-70
2023/06/02 02:10:47;;;;;;;6.10;3.80;;;;;;;9.95;87.94;95430.95;106664;1276;22944;-71
2023/06/02 02:13:16;;;;;;;5.60;3.80;;;;;;;9.93;87.81;95430.29;106437;1276;25318;-70
2023/06/02 02:15:44;;;;;;;4.40;3.30;;;;;;;9.96;88.21;95428.64;106599;1276;22513;-71
2023/06/02 02:18:12;;;;;;;4.80;3.40;;;;;;;10.01;88.23;95428.90;106556;1276;25265;-71
2023/06/02 02:20:40;;;;;;;7.00;2.80;;;;;;;9.98;87.23;95430.02;106521;1276;25275;-70
2023/06/02 02:23:09;;;;;;;7.00;3.20;;;;;;;9.90;87.21;95430.86;106620;1276;22643;-71
2023/06/02 02:25:37;;;;;;;5.70;3.50;;;;;;;9.84;87.43;95430.42;106567;1276;22527;-70
2023/06/02 02:28:05;;;;;;;5.70;3.90;;;;;;;9.74;87.83;95432.04;106517;1273;22514;-70
2023/06/02 02:30:33;;;;;;;5.90;3.50;;;;;;;9.75;88.48;95431.14;106600;1276;23638;-69
2023/06/02 02:33:02;;;;;;;8.10;4.20;;;;;;;9.80;88.49;95432.98;106599;1276;22518;-70
2023/06/02 02:35:31;;;;;;;6.40;3.80;;;;;;;9.86;88.60;95433.40;106570;1276;24046;-70
2023/06/02 02:37:59;;;;;;;4.00;3.40;;;;;;;9.88;87.97;95428.98;106577;1276;22541;-71
2023/06/02 02:40:28;;;;;;;5.90;4.20;;;;;;;9.86;88.01;95429.35;106676;1276;22831;-71
2023/06/02 02:42:57;;;;;;;4.60;3.50;;;;;;;9.89;87.95;95431.77;106579;1276;24772;-71
2023/06/02 02:45:25;;;;;;;5.00;3.70;;;;;;;9.90;87.58;95427.52;106590;1276;25207;-71
2023/06/02 02:47:53;;;;;;;7.20;3.80;;;;;;;9.92;87.51;95431.17;106586;1276;22524;-71
2023/06/02 02:50:22;;;;;;;7.10;3.70;;;;;;;9.92;87.53;95430.65;106573;1276;25700;-71
2023/06/02 02:52:50;;;;;;;7.50;3.30;;;;;;;9.88;87.39;95429.49;106571;1276;22530;-72
2023/06/02 02:55:18;;;;;;;11.50;3.70;;;;;;;9.92;87.49;95429.25;106380;1276;22637;-71
2023/06/02 02:57:46;;;;;;;5.40;3.80;;;;;;;9.92;87.44;95429.95;106517;1257;24244;-71
2023/06/02 03:00:15;;;;;;;5.50;3.80;;;;;;;9.98;87.84;95431.24;106530;1276;22520;-71
2023/06/02 03:02:43;;;;;;;6.90;4.10;;;;;;;9.97;87.00;95428.45;106565;1276;24206;-71
2023/06/02 03:17:29;;;;;;;5.60;3.70;;;;;;;10.51;85.61;95436.89;104498;1304;557612;-70
2023/06/02 03:19:58;;;;;;;4.60;3.70;;;;;;;10.59;85.97;95433.58;106146;1286;143367;-70
2023/06/02 03:22:28;;;;;;;3.80;3.00;;;;;;;10.63;86.00;95437.89;106318;1286;25220;-70
2023/06/02 03:24:58;;;;;;;5.00;3.70;;;;;;;10.62;86.09;95437.38;106344;1286;22523;-70
2023/06/02 03:27:27;;;;;;;5.80;3.40;;;;;;;10.63;86.20;95431.39;106050;1286;24424;-70
2023/06/02 03:29:56;;;;;;;6.30;3.90;;;;;;;10.68;86.53;95435.66;106244;1286;22742;-70
2023/06/02 03:32:28;;;;;;;4.70;3.80;;;;;;;10.76;87.08;95433.91;106672;1279;22516;-70
2023/06/02 03:34:56;;;;;;;5.30;3.30;;;;;;;10.83;87.01;95429.00;106698;1279;22586;-69
2023/06/02 03:37:24;;;;;;;7.20;3.60;;;;;;;10.85;86.41;95423.16;106593;1279;26744;-70
2023/06/02 03:39:52;;;;;;;6.60;4.50;;;;;;;10.83;86.12;95428.30;106759;1277;25393;-70
2023/06/02 03:42:21;;;;;;;5.60;3.90;;;;;;;10.82;86.01;95431.30;106803;1277;22592;-70
2023/06/02 03:44:49;;;;;;;6.90;4.10;;;;;;;10.86;86.31;95430.02;106527;1277;22977;-70
2023/06/02 03:47:17;;;;;;;6.00;3.70;;;;;;;10.89;86.32;95431.34;106556;1277;22523;-70
2023/06/02 03:49:46;;;;;;;5.20;4.10;;;;;;;10.89;86.07;95430.09;106525;1277;23012;-70
2023/06/02 03:52:14;;;;;;;5.90;4.20;;;;;;;10.88;86.08;95433.48;106509;1277;24059;-70
2023/06/02 03:54:42;;;;;;;6.40;3.30;;;;;;;10.88;86.12;95433.13;106610;1277;24249;-70
2023/06/02 03:57:11;;;;;;;4.20;3.50;;;;;;;10.77;85.43;95438.61;106751;1274;22527;-70
2023/06/02 03:59:39;;;;;;;5.30;3.50;;;;;;;10.68;86.02;95438.30;107073;1274;22599;-70
2023/06/02 04:02:08;;;;;;;4.70;3.50;;;;;;;10.60;86.37;95436.54;107006;1274;24225;-70
2023/06/02 04:04:37;;;;;;;5.10;3.80;;;;;;;10.52;87.33;95435.13;106825;1274;24415;-70
2023/06/02 04:07:05;;;;;;;10.80;3.60;;;;;;;10.46;87.92;95430.32;106737;1254;22565;-70
2023/06/02 04:09:34;;;;;;;4.20;3.60;;;;;;;10.50;87.61;95430.44;106825;1274;25192;-70
2023/06/02 04:12:04;;;;;;;7.10;3.70;;;;;;;10.56;88.58;95428.17;106838;1274;24228;-70
2023/06/02 04:14:35;;;;;;;5.40;4.10;;;;;;;10.66;88.52;95427.46;106718;1274;22525;-70
2023/06/02 04:17:04;;;;;;;4.50;3.90;;;;;;;10.72;88.44;95426.98;106704;1274;24372;-70
2023/06/02 04:19:33;;;;;;;6.10;4.30;;;;;;;10.75;88.13;95418.09;106771;1274;22517;-69
2023/06/02 04:22:03;;;;;;;7.30;4.10;;;;;;;10.76;87.98;95421.92;106764;1274;22520;-69
2023/06/02 04:24:32;;;;;;;5.50;4.10;;;;;;;10.74;87.59;95420.93;106722;1274;22521;-70
2023/06/02 04:27:01;;;;;;;5.80;4.30;;;;;;;10.71;87.58;95414.30;106735;1274;22690;-70
2023/06/02 04:29:30;;;;;;;4.90;4.40;;;;;;;10.75;87.71;95416.52;106795;1274;26733;-69
2023/06/02 04:32:01;;;;;;;7.40;5.40;;;;;;;10.81;87.97;95414.44;106758;1274;25297;-70
2023/06/02 04:34:33;;;;;;;5.70;5.00;;;;;;;10.88;88.19;95418.68;106752;1274;25461;-70
2023/06/02 04:37:02;;;;;;;9.50;5.10;;;;;;;10.98;88.30;95418.45;106692;1274;22589;-69
2023/06/02 04:39:34;;;;;;;8.00;5.50;;;;;;;11.10;89.01;95417.66;106795;1274;26634;-70
2023/06/02 04:42:05;;;;;;;7.70;5.80;;;;;;;11.23;89.50;95414.88;106800;1274;25343;-70
2023/06/02 04:44:34;;;;;;;7.80;6.50;;;;;;;11.37;89.46;95415.25;106854;1274;22639;-70
2023/06/02 04:47:02;;;;;;;9.30;5.40;;;;;;;11.53;88.98;95410.45;106680;1274;22515;-70
2023/06/02 04:49:31;;;;;;;8.80;4.90;;;;;;;11.70;88.73;95413.70;106829;1274;25307;-70
2023/06/02 04:51:59;;;;;;;6.70;4.80;;;;;;;11.84;88.53;95408.95;106574;1274;24370;-69
2023/06/02 04:54:28;;;;;;;10.60;5.30;;;;;;;12.01;88.56;95404.30;106832;1274;25447;-70
2023/06/02 04:56:57;;;;;;;8.20;4.70;;;;;;;12.19;88.76;95407.84;106757;1274;24221;-71
2023/06/02 04:59:25;;;;;;;9.00;4.90;;;;;;;12.40;88.83;95402.86;106666;1274;24223;-70
2023/06/02 05:01:54;;;;;;;9.60;5.50;;;;;;;12.60;88.79;95401.20;106768;1274;25377;-70
2023/06/02 05:04:23;;;;;;;8.80;5.60;;;;;;;12.79;88.64;95397.98;106682;1274;22511;-71
2023/06/02 05:06:52;;;;;;;8.60;4.80;;;;;;;13.00;88.54;95395.94;106813;1274;22722;-70
2023/06/02 05:09:21;;;;;;;9.10;5.20;;;;;;;13.20;88.49;95393.20;106858;1274;22600;-71
2023/06/02 05:11:49;;;;;;;10.60;5.80;;;;;;;13.43;88.63;95392.12;106790;1263;22747;-70
2023/06/02 05:14:21;;;;;;;9.50;5.80;;;;;;;13.65;88.11;95396.85;106752;1274;25233;-71
2023/06/02 05:16:50;;;;;;;11.00;5.40;;;;;;;13.83;87.66;95394.14;106693;1274;22516;-71
2023/06/02 05:19:18;;;;;;;11.20;5.20;;;;;;;14.03;87.69;95393.45;106777;1274;25318;-71
2023/06/02 05:21:47;;;;;;;8.80;4.70;;;;;;;14.24;87.48;95394.63;106766;1274;25323;-70
2023/06/02 05:24:15;;;;;;;9.50;4.30;;;;;;;14.41;86.66;95392.05;106792;1274;24040;-71
2023/06/02 05:26:44;;;;;;;7.30;4.40;;;;;;;14.59;86.43;95386.48;106797;1274;22755;-71
2023/06/02 05:29:12;;;;;;;7.60;4.90;;;;;;;14.75;86.22;95385.89;106664;1274;22514;-71
2023/06/02 05:31:41;;;;;;;9.70;4.60;;;;;;;14.92;85.97;95393.52;106730;1274;25514;-70
2023/06/02 05:34:11;;;;;;;10.10;4.90;;;;;;;15.09;85.50;95392.70;106774;1274;25220;-71
2023/06/02 05:36:39;;;;;;;10.50;5.30;;;;;;;15.24;85.07;95391.05;106807;1274;24030;-71
2023/06/02 05:39:08;;;;;;;8.60;5.10;;;;;;;15.38;84.66;95390.84;106748;1274;25255;-70
2023/06/02 05:41:36;;;;;;;5.30;4.40;;;;;;;15.52;84.15;95394.70;106780;1274;25302;-71
2023/06/02 05:44:04;;;;;;;8.00;5.10;;;;;;;15.66;83.86;95390.41;106783;1274;24400;-70
2023/06/02 05:46:32;;;;;;;6.40;4.40;;;;;;;15.75;83.28;95391.80;106787;1274;22788;-71
2023/06/02 05:49:00;;;;;;;6.50;4.70;;;;;;;15.85;82.96;95387.67;106771;1274;22555;-70
2023/06/02 05:51:30;;;;;;;7.40;5.10;;;;;;;15.97;82.76;95388.73;106764;1274;25377;-71
2023/06/02 05:54:00;;;;;;;7.10;5.00;;;;;;;16.04;82.23;95391.84;106759;1274;22528;-70
2023/06/02 05:56:28;;;;;;;8.10;5.40;;;;;;;16.04;81.65;95387.92;106748;1274;24127;-70
2023/06/02 05:58:58;;;;;;;9.40;5.30;;;;;;;15.99;81.39;95387.41;106767;1274;25396;-70
2023/06/02 06:01:28;;;;;;;9.00;5.30;;;;;;;15.97;81.12;95384.13;106706;1274;22834;-70
2023/06/02 06:03:56;;;;;;;7.50;5.00;;;;;;;15.92;80.84;95383.65;106675;1274;22729;-71
2023/06/02 06:06:24;;;;;;;7.80;5.90;;;;;;;15.88;81.04;95383.65;106734;1274;25253;-71
2023/06/02 06:08:53;;;;;;;8.20;5.90;;;;;;;15.96;81.41;95381.52;106724;1274;22520;-70
2023/06/02 06:11:23;;;;;;;8.30;5.60;;;;;;;16.11;81.25;95385.68;106692;1274;24228;-71
2023/06/02 06:13:53;;;;;;;10.50;5.80;;;;;;;16.19;81.13;95385.31;106714;1274;24125;-71
2023/06/02 06:16:21;;;;;;;7.80;5.80;;;;;;;16.29;81.29;95388.45;106800;1274;25396;-71
2023/06/02 06:18:49;;;;;;;12.10;6.50;;;;;;;16.44;81.28;95386.34;106784;1274;22520;-71
2023/06/02 06:21:18;;;;;;;8.70;5.50;;;;;;;16.60;80.96;95388.27;106769;1274;25850;-71
2023/06/02 06:23:46;;;;;;;7.80;5.90;;;;;;;16.73;80.44;95391.09;106670;1274;25556;-70
2023/06/02 06:26:16;;;;;;;8.30;4.90;;;;;;;16.74;79.60;95388.86;106743;1274;25581;-71
2023/06/02 06:28:44;;;;;;;7.00;5.60;;;;;;;16.75;79.49;95389.55;106821;1274;24252;-69
2023/06/02 06:31:14;;;;;;;8.10;5.50;;;;;;;16.80;79.46;95388.45;106793;1274;23873;-71
2023/06/02 06:33:42;;;;;;;8.00;5.90;;;;;;;16.92;79.74;95387.01;106696;1274;25371;-71
2023/06/02 06:36:11;;;;;;;6.80;5.80;;;;;;;17.13;79.81;95384.94;106804;1274;24324;-71
2023/06/02 06:38:40;;;;;;;8.10;5.40;;;;;;;17.42;79.81;95384.63;106739;1274;22892;-69
2023/06/02 06:41:09;;;;;;;7.30;5.50;;;;;;;17.69;79.30;95382.96;106819;1274;24242;-69
2023/06/02 06:43:39;;;;;;;8.00;5.10;;;;;;;17.96;79.24;95378.94;106824;1274;24246;-69
2023/06/02 06:46:15;;;;;;;6.50;4.60;;;;;;;18.27;78.65;95378.59;106818;1274;22523;-69
2023/06/02 06:48:43;;;;;;;6.10;4.80;;;;;;;18.58;78.82;95378.72;106804;1274;22523;-69
2023/06/02 06:51:12;;;;;;;6.80;5.20;;;;;;;18.91;78.76;95379.63;106772;1274;22585;-69
2023/06/02 06:53:40;;;;;;;5.40;4.30;;;;;;;19.21;78.00;95379.27;106703;1274;25415;-69
2023/06/02 06:56:09;;;;;;;5.60;3.70;;;;;;;19.48;77.50;95375.08;106783;1274;22528;-69
2023/06/02 06:58:37;;;;;;;5.90;4.20;;;;;;;19.69;75.06;95369.79;106751;1274;25325;-70
2023/06/02 07:01:05;;;;;;;7.90;4.60;;;;;;;19.81;73.74;95370.36;106752;1274;24257;-69
2023/06/02 07:03:34;;;;;;;8.30;4.70;;;;;;;19.84;72.48;95369.07;106768;1274;24240;-69
2023/06/02 07:06:02;;;;;;;7.00;4.60;;;;;;;19.95;73.00;95368.27;106781;1274;22632;-69
2023/06/02 07:08:32;;;;;;;8.30;5.60;;;;;;;20.11;73.71;95369.08;106720;1274;24206;-69
2023/06/02 07:11:00;;;;;;;8.10;5.40;;;;;;;20.26;70.18;95368.90;106751;1274;24242;-69
2023/06/02 07:13:29;;;;;;;7.50;4.90;;;;;;;20.41;70.99;95364.27;106744;1274;24378;-70
2023/06/02 07:15:58;;;;;;;5.70;5.00;;;;;;;20.60;71.68;95359.33;106805;1274;24049;-69
2023/06/02 07:18:26;;;;;;;7.20;5.00;;;;;;;20.79;71.24;95361.05;106773;1274;23133;-69
2023/06/02 07:20:55;;;;;;;6.30;4.60;;;;;;;20.95;70.63;95357.33;106680;1266;22521;-69
2023/06/02 07:23:23;;;;;;;6.90;4.90;;;;;;;21.07;67.98;95351.61;106740;1274;25249;-69
2023/06/02 07:25:51;;;;;;;7.70;4.80;;;;;;;21.08;67.18;95351.34;106650;1274;22563;-69
2023/06/02 07:28:20;;;;;;;6.10;4.90;;;;;;;21.24;68.47;95351.77;106765;1274;22512;-69
2023/06/02 07:31:06;;;;;;;4.50;4.00;;;;;;;21.36;67.23;95346.30;106744;1274;22790;-70
2023/06/02 07:33:38;;;;;;;8.60;4.50;;;;;;;21.47;67.04;95346.51;106777;1274;25347;-69
2023/06/02 07:36:07;;;;;;;5.40;4.30;;;;;;;21.55;64.95;95345.66;106814;1274;22515;-70
2023/06/02 07:38:36;;;;;;;5.00;4.10;;;;;;;21.65;64.29;95343.02;106748;1274;22767;-69
2023/06/02 07:41:04;;;;;;;5.30;4.10;;;;;;;21.73;63.88;95346.23;106723;1274;25383;-70
2023/06/02 07:43:32;;;;;;;6.10;4.30;;;;;;;21.84;61.58;95347.84;106863;1274;22517;-69
2023/06/02 07:46:01;;;;;;;9.40;4.80;;;;;;;21.91;61.56;95347.73;106747;1267;24179;-69
2023/06/02 07:48:29;;;;;;;6.30;4.20;;;;;;;22.04;61.69;95345.80;106805;1274;22462;-69
2023/06/02 07:50:58;;;;;;;5.40;4.60;;;;;;;22.15;61.45;95350.95;106744;1269;22553;-69
2023/06/02 07:53:26;;;;;;;6.90;4.30;;;;;;;22.19;60.14;95350.87;106748;1251;25686;-69
2023/06/02 07:55:54;;;;;;;7.20;3.80;;;;;;;22.34;60.92;95342.52;106804;1274;22516;-70
2023/06/02 07:58:23;;;;;;;6.00;4.10;;;;;;;22.55;61.18;95336.70;106803;1274;22527;-70
2023/06/02 08:00:51;;;;;;;5.80;3.90;;;;;;;22.75;59.07;95336.94;106743;1274;22514;-69
2023/06/02 08:03:21;;;;;;;10.70;4.30;;;;;;;22.86;58.21;95340.12;106776;1274;25403;-70
2023/06/02 08:05:50;;;;;;;6.10;4.10;;;;;;;22.99;56.95;95334.74;106801;1274;22723;-70
2023/06/02 08:08:18;;;;;;;8.10;4.90;;;;;;;23.13;57.22;95337.70;106735;1274;24198;-70
2023/06/02 08:10:47;;;;;;;6.10;3.90;;;;;;;23.01;53.43;95337.45;106715;1274;23000;-70
2023/06/02 08:13:15;;;;;;;7.40;3.90;;;;;;;22.78;54.38;95340.36;106756;1274;25529;-70
2023/06/02 08:15:43;;;;;;;6.20;4.50;;;;;;;22.80;55.37;95341.45;106759;1274;24356;-69
2023/06/02 08:18:15;;;;;;;8.80;4.70;;;;;;;22.73;55.08;95343.53;106776;1267;22517;-70
2023/06/02 08:20:45;;;;;;;6.10;4.20;;;;;;;22.61;54.23;95336.67;106779;1274;22551;-70
2023/06/02 08:23:14;;;;;;;6.40;4.00;;;;;;;22.77;53.92;95334.13;106796;1274;22644;-69
2023/06/02 08:25:44;;;;;;;5.60;4.40;;;;;;;23.00;53.60;95330.14;106783;1274;25520;-70
2023/06/02 08:28:13;;;;;;;6.40;4.60;;;;;;;23.28;52.57;95327.44;106782;1274;22508;-69
2023/06/02 08:30:46;;;;;;;6.50;3.90;;;;;;;23.44;51.20;95322.45;106644;1274;26594;-70
2023/06/02 08:33:14;;;;;;;7.20;4.50;;;;;;;23.57;50.66;95327.27;106784;1274;24198;-70
2023/06/02 08:35:43;;;;;;;4.70;4.10;;;;;;;23.42;48.13;95322.96;106671;1274;24219;-69
2023/06/02 08:38:17;;;;;;;5.00;4.10;;;;;;;23.27;49.77;95326.41;106698;1274;25321;-69
2023/06/02 08:40:47;;;;;;;5.70;4.30;;;;;;;23.23;48.08;95322.94;106797;1274;22514;-69
2023/06/02 08:43:15;;;;;;;5.50;4.10;;;;;;;23.37;49.83;95323.56;106760;1251;22513;-70
2023/06/02 08:45:46;;;;;;;9.00;4.60;;;;;;;23.56;50.03;95322.50;106776;1274;22679;-70
2023/06/02 08:48:17;;;;;;;5.50;4.30;;;;;;;23.68;49.09;95322.16;106787;1274;22523;-70
2023/06/02 08:50:47;;;;;;;7.30;4.20;;;;;;;23.78;49.00;95318.17;106808;1274;22595;-70
2023/06/02 08:53:16;;;;;;;7.40;4.20;;;;;;;23.84;49.50;95316.81;106746;1274;23070;-70
2023/06/02 08:55:48;;;;;;;5.80;3.50;;;;;;;24.01;49.81;95313.05;106811;1274;25233;-70
2023/06/02 08:58:16;;;;;;;7.80;4.10;;;;;;;24.21;49.71;95314.18;106684;1274;25191;-71
2023/06/02 09:00:44;;;;;;;11.60;4.30;;;;;;;24.40;49.80;95314.17;106680;1274;22517;-70
2023/06/02 09:03:14;;;;;;;4.40;3.80;;;;;;;24.53;48.60;95305.09;106715;1274;22590;-69
2023/06/02 09:06:20;;;;;;;5.90;4.10;;;;;;;24.74;48.85;95306.50;106775;1274;25562;-70
2023/06/02 09:09:00;;;;;;;6.00;3.50;;;;;;;24.79;46.02;95295.81;106707;1274;22623;-70
2023/06/02 09:11:31;;;;;;;7.40;3.90;;;;;;;24.88;45.32;95298.96;106814;1274;25417;-70
2023/06/02 09:13:59;;;;;;;17.50;3.90;;;;;;;24.90;45.02;95298.95;106792;1274;24199;-70
2023/06/02 09:16:37;;;;;;;5.00;3.70;;;;;;;25.10;44.46;95295.88;106793;1274;24346;-70
2023/06/02 09:19:06;;;;;;;5.90;3.90;;;;;;;25.27;44.56;95295.84;106703;1274;22636;-70
2023/06/02 09:21:35;;;;;;;6.80;3.80;;;;;;;25.25;43.87;95299.16;106795;1274;22569;-70
2023/06/02 09:24:04;;;;;;;6.20;3.70;;;;;;;25.12;43.27;95296.81;106793;1274;25262;-70
2023/06/02 09:26:35;;;;;;;6.80;3.70;;;;;;;25.15;44.26;95297.28;106738;1274;22663;-69
2023/06/02 09:29:10;;;;;;;6.60;3.80;;;;;;;25.25;46.75;95295.56;106750;1274;25226;-70
2023/06/02 09:31:58;;;;;;;4.80;3.70;;;;;;;25.08;47.43;95291.15;106753;1274;22548;-70
2023/06/02 09:34:37;;;;;;;5.20;4.00;;;;;;;24.95;48.07;95288.23;106752;1274;22514;-71
2023/06/02 09:37:09;;;;;;;7.40;4.20;;;;;;;24.84;47.85;95286.08;106738;1274;22989;-70
2023/06/02 09:39:42;;;;;;;4.30;3.60;;;;;;;24.55;45.69;95285.90;106780;1274;24342;-70
2023/06/02 09:42:15;;;;;;;5.30;3.80;;;;;;;24.27;46.86;95287.33;106738;1274;22519;-70
2023/06/02 09:45:07;;;;;;;4.60;3.80;;;;;;;24.20;48.61;95283.72;106856;1274;22522;-70
2023/06/02 09:47:41;;;;;;;7.50;3.90;;;;;;;24.24;49.88;95284.34;106771;1274;22532;-70
2023/06/02 09:50:30;;;;;;;5.40;3.70;;;;;;;24.10;49.74;95283.09;106813;1267;22518;-70
2023/06/02 09:53:04;;;;;;;6.20;4.10;;;;;;;23.96;49.88;95282.36;106780;1274;22559;-69
2023/06/02 09:55:37;;;;;;;5.80;4.00;;;;;;;23.87;50.28;95278.55;106799;1274;22640;-70
2023/06/02 09:58:07;;;;;;;7.30;4.00;;;;;;;23.91;50.48;95276.24;106784;1274;25337;-70
2023/06/02 10:00:35;;;;;;;4.80;4.00;;;;;;;23.95;51.07;95271.11;106679;1274;23969;-70
2023/06/02 10:03:05;;;;;;;7.90;3.90;;;;;;;24.12;51.22;95266.40;106773;1272;24746;-70
2023/06/02 10:05:36;;;;;;;11.20;4.70;;;;;;;24.57;51.65;95263.60;106677;1274;22633;-70
2023/06/02 10:08:19;;;;;;;7.00;4.20;;;;;;;24.90;50.30;95264.19;106790;1274;22521;-69
2023/06/02 10:11:13;;;;;;;5.00;4.00;;;;;;;24.89;49.39;95261.73;106710;1274;22511;-70
2023/06/02 10:13:50;;;;;;;4.60;3.90;;;;;;;24.85;49.35;95263.31;106736;1257;25214;-69
2023/06/02 10:16:35;;;;;;;5.40;4.00;;;;;;;25.11;48.79;95253.55;106953;1274;25386;-69
2023/06/02 10:19:12;;;;;;;5.10;4.00;;;;;;;25.35;48.55;95255.14;106745;1274;22510;-70
2023/06/02 10:22:05;;;;;;;7.80;3.80;;;;;;;25.30;48.05;95259.02;106713;1274;24084;-69
2023/06/02 10:24:58;;;;;;;6.10;3.90;;;;;;;25.15;48.43;95257.48;106718;1274;22518;-70
2023/06/02 10:27:39;;;;;;;7.50;4.20;;;;;;;24.88;47.50;95255.39;106766;1274;22524;-69
2023/06/02 10:30:08;;;;;;;4.90;4.00;;;;;;;24.84;48.14;95250.48;106807;1274;25431;-70
2023/06/02 10:32:45;;;;;;;5.60;3.80;;;;;;;24.92;48.05;95248.79;106812;1274;25225;-70
2023/06/02 10:35:15;;;;;;;6.90;3.70;;;;;;;24.78;47.15;95249.89;106706;1274;24224;-69
2023/06/02 10:37:45;;;;;;;5.30;3.90;;;;;;;24.75;48.58;95249.58;106823;1274;25380;-70
2023/06/02 10:40:14;;;;;;;8.40;3.80;;;;;;;24.66;48.12;95245.41;106808;1274;22540;-69
2023/06/02 10:43:17;;;;;;;5.00;3.90;;;;;;;24.67;47.63;95245.70;106777;1274;22517;-69
2023/06/02 10:45:45;;;;;;;7.00;4.30;;;;;;;24.91;48.41;95245.74;106493;1274;22983;-69
2023/06/02 10:48:34;;;;;;;7.90;5.00;;;;;;;24.89;48.87;95241.10;106750;1274;25476;-69
2023/06/02 10:51:03;;;;;;;7.90;4.40;;;;;;;24.89;49.34;95241.30;106767;1274;25441;-70
2023/06/02 10:53:32;;;;;;;5.80;4.10;;;;;;;24.82;48.80;95244.84;106753;1274;22797;-70
2023/06/02 10:56:39;;;;;;;6.10;4.30;;;;;;;24.70;48.72;95245.48;106777;1274;25622;-69
2023/06/02 10:59:09;;;;;;;7.20;4.10;;;;;;;24.46;48.70;95250.83;106151;1282;22720;-69
2023/06/02 11:01:51;;;;;;;7.30;4.00;;;;;;;24.13;48.17;95254.81;106674;1274;24241;-69
2023/06/02 11:04:34;;;;;;;9.80;4.60;;;;;;;23.92;49.08;95259.28;106700;1274;25481;-70
2023/06/02 11:07:26;;;;;;;4.20;3.60;;;;;;;23.78;49.01;95255.30;106734;1274;22697;-69
2023/06/02 11:09:56;;;;;;;5.10;4.10;;;;;;;23.61;50.39;95256.79;106783;1274;24342;-69
2023/06/02 11:12:50;;;;;;;4.90;3.70;;;;;;;23.50;50.55;95253.08;106783;1274;24252;-70
2023/06/02 11:15:20;;;;;;;4.00;3.60;;;;;;;23.72;51.35;95250.38;106535;1274;22631;-69
2023/06/02 11:17:48;;;;;;;4.80;3.60;;;;;;;24.22;50.76;95249.39;106658;1274;22596;-69
2023/06/02 11:20:18;;;;;;;3.90;3.50;;;;;;;24.38;49.11;95248.13;106836;1274;22627;-69
2023/06/02 11:22:46;;;;;;;4.50;3.50;;;;;;;24.26;48.60;95247.88;106740;1274;22753;-69
2023/06/02 11:25:16;;;;;;;6.70;4.80;;;;;;;24.05;48.18;95251.23;106741;1274;24256;-70
2023/06/02 11:27:46;;;;;;;8.10;4.50;;;;;;;23.57;47.23;95259.76;106806;1274;22639;-69
2023/06/02 11:30:17;;;;;;;5.90;3.80;;;;;;;23.04;47.98;95259.23;106773;1274;22665;-70
2023/06/02 11:32:49;;;;;;;6.30;4.40;;;;;;;22.78;48.97;95256.61;106743;1274;22895;-69
2023/06/02 11:35:21;;;;;;;5.20;4.50;;;;;;;22.75;49.95;95254.78;106729;1274;25296;-70
2023/06/02 11:38:04;;;;;;;6.80;3.60;;;;;;;22.99;49.20;95254.34;106804;1274;22524;-70
2023/06/02 11:40:37;;;;;;;5.50;3.90;;;;;;;23.31;48.96;95248.63;106725;1274;24240;-70
2023/06/02 11:43:06;;;;;;;6.40;3.80;;;;;;;23.71;47.61;95246.48;106849;1274;25334;-70
2023/06/02 11:45:36;;;;;;;7.50;4.00;;;;;;;23.97;46.84;95249.25;106637;1274;22541;-70
2023/06/02 11:48:10;;;;;;;4.30;3.70;;;;;;;24.00;46.83;95245.95;106700;1274;22525;-70
2023/06/02 11:50:39;;;;;;;4.80;3.70;;;;;;;24.11;46.33;95244.18;106815;1272;22514;-70
2023/06/02 11:53:13;;;;;;;4.50;3.30;;;;;;;23.85;45.95;95244.37;106793;1274;22589;-70
2023/06/02 11:55:41;;;;;;;6.30;3.20;;;;;;;23.59;47.37;95245.96;106744;1274;24512;-70